createdAt,value
2023-03-19T00:00:37.444Z,15.27
2023-03-19T00:03:04.187Z,15.93
2023-03-19T00:05:31.169Z,16.50
2023-03-19T00:07:57.998Z,16.40
2023-03-19T00:10:24.670Z,16.80
2023-03-19T00:12:51.327Z,17.75
2023-03-19T00:15:18.142Z,16.75
2023-03-19T00:17:44.987Z,17.15
2023-03-19T00:20:12.946Z,17.10
2023-03-19T00:22:39.805Z,17.38
2023-03-19T00:25:07.865Z,16.75
2023-03-19T00:27:34.576Z,16.80
2023-03-19T00:30:01.223Z,17.73
2023-03-19T00:32:27.885Z,16.65
2023-03-19T00:34:54.532Z,16.83
2023-03-19T00:37:21.282Z,17.05
2023-03-19T00:39:47.920Z,16.52
2023-03-19T00:42:14.616Z,17.25
2023-03-19T00:44:41.377Z,16.90
2023-03-19T00:47:08.195Z,16.52
2023-03-19T00:49:34.982Z,16.60
2023-03-19T00:52:01.643Z,17.48
2023-03-19T00:54:28.329Z,16.75
2023-03-19T00:56:55.076Z,16.67
2023-03-19T00:59:22.128Z,16.65
2023-03-19T01:01:48.871Z,16.85
2023-03-19T01:04:15.591Z,16.90
2023-03-19T01:06:42.283Z,17.55
2023-03-19T01:09:09.086Z,17.33
2023-03-19T01:11:35.971Z,17.10
2023-03-19T01:14:02.776Z,17.25
2023-03-19T01:16:29.632Z,16.90
2023-03-19T01:18:56.369Z,16.02
2023-03-19T01:21:23.038Z,16.67
2023-03-19T01:23:49.736Z,17.33
2023-03-19T01:26:16.419Z,17.88
2023-03-19T01:28:43.091Z,16.73
2023-03-19T01:31:10.005Z,16.77
2023-03-19T01:33:36.885Z,16.20
2023-03-19T01:36:04.336Z,16.35
2023-03-19T01:38:31.712Z,16.38
2023-03-19T01:40:58.397Z,16.25
2023-03-19T01:43:27.320Z,16.55
2023-03-19T01:46:25.857Z,16.45
2023-03-19T01:48:59.833Z,15.60
2023-03-19T01:51:34.538Z,15.32
2023-03-19T01:54:05.083Z,15.73
2023-03-19T01:56:34.474Z,15.70
2023-03-19T01:59:05.703Z,15.73
2023-03-19T02:01:35.478Z,15.48
2023-03-19T02:04:03.605Z,15.35
2023-03-19T02:06:31.504Z,15.55
2023-03-19T02:08:58.816Z,15.05
2023-03-19T02:11:26.154Z,15.27
2023-03-19T02:13:53.281Z,15.30
2023-03-19T02:16:20.093Z,15.65
2023-03-19T02:18:47.835Z,15.68
2023-03-19T02:21:18.460Z,15.35
2023-03-19T02:24:09.161Z,14.98
2023-03-19T02:26:36.793Z,15.98
2023-03-19T02:29:03.561Z,15.65
2023-03-19T02:31:30.392Z,15.00
2023-03-19T02:34:27.669Z,16.02
2023-03-19T02:37:19.585Z,15.95
2023-03-19T02:40:08.837Z,16.13
2023-03-19T02:42:35.652Z,15.73
2023-03-19T02:45:02.399Z,15.32
2023-03-19T02:47:29.193Z,15.32
2023-03-19T02:49:55.862Z,15.38
2023-03-19T02:52:22.536Z,16.75
2023-03-19T02:54:49.244Z,16.33
2023-03-19T02:57:16.169Z,15.27
2023-03-19T02:59:42.877Z,15.93
2023-03-19T03:02:10.102Z,15.93
2023-03-19T03:04:36.919Z,16.77
2023-03-19T03:07:04.770Z,15.30
2023-03-19T03:09:31.568Z,15.75
2023-03-19T03:11:58.275Z,16.80
2023-03-19T03:14:25.026Z,15.93
2023-03-19T03:16:51.764Z,16.35
2023-03-19T03:19:18.428Z,16.02
2023-03-19T03:21:45.059Z,15.85
2023-03-19T03:24:11.721Z,15.77
2023-03-19T03:26:38.420Z,15.70
2023-03-19T03:29:08.258Z,15.63
2023-03-19T03:31:35.398Z,16.08
2023-03-19T03:34:02.759Z,15.60
2023-03-19T03:36:29.543Z,15.52
2023-03-19T03:38:56.337Z,16.33
2023-03-19T03:41:23.020Z,15.60
2023-03-19T03:43:49.694Z,15.50
2023-03-19T03:46:16.539Z,15.43
2023-03-19T03:48:43.224Z,16.20
2023-03-19T03:51:09.889Z,16.23
2023-03-19T03:53:36.584Z,15.38
2023-03-19T03:56:03.284Z,16.48
2023-03-19T03:58:29.916Z,16.08
2023-03-19T04:00:56.621Z,17.02
2023-03-19T04:03:23.279Z,17.00
2023-03-19T04:05:50.614Z,17.33
2023-03-19T04:08:17.373Z,17.02
2023-03-19T04:10:44.167Z,16.45
2023-03-19T04:13:12.255Z,17.13
2023-03-19T04:15:39.108Z,17.33
2023-03-19T04:18:05.869Z,17.15
2023-03-19T04:20:32.815Z,17.50
2023-03-19T04:22:59.667Z,16.10
2023-03-19T04:25:26.369Z,17.17
2023-03-19T04:27:53.039Z,17.10
2023-03-19T04:30:19.765Z,17.35
2023-03-19T04:32:46.580Z,16.40
2023-03-19T04:35:13.525Z,16.75
2023-03-19T04:37:40.316Z,16.48
2023-03-19T04:40:07.604Z,16.60
2023-03-19T04:42:34.267Z,16.70
2023-03-19T04:45:00.977Z,16.42
2023-03-19T04:47:27.628Z,16.40
2023-03-19T04:49:54.315Z,17.85
2023-03-19T04:52:20.992Z,16.75
2023-03-19T04:54:47.624Z,16.67
2023-03-19T04:57:14.306Z,16.33
2023-03-19T04:59:40.956Z,17.60
2023-03-19T05:02:07.664Z,17.02
2023-03-19T05:04:34.466Z,17.33
2023-03-19T05:07:01.158Z,18.13
2023-03-19T05:09:27.938Z,17.73
2023-03-19T05:11:54.598Z,18.55
2023-03-19T05:14:21.353Z,18.63
2023-03-19T05:16:48.110Z,20.40
2023-03-19T05:19:14.878Z,21.38
2023-03-19T05:21:41.769Z,21.02
2023-03-19T05:24:08.852Z,21.83
2023-03-19T05:26:37.982Z,25.33
2023-03-19T05:29:04.674Z,22.73
2023-03-19T05:31:31.398Z,23.23
2023-03-19T05:34:00.825Z,27.30
2023-03-19T05:36:31.974Z,27.50
2023-03-19T05:38:58.690Z,24.73
2023-03-19T05:41:25.437Z,26.23
2023-03-19T05:43:52.178Z,24.67
2023-03-19T05:46:21.541Z,25.90
2023-03-19T05:48:48.295Z,24.75
2023-03-19T05:51:15.094Z,24.30
2023-03-19T05:53:41.774Z,25.30
2023-03-19T05:56:10.562Z,26.38
2023-03-19T05:58:37.536Z,22.85
2023-03-19T06:01:04.536Z,24.33
2023-03-19T06:03:31.330Z,23.33
2023-03-19T06:06:00.196Z,22.92
2023-03-19T06:08:32.616Z,21.80
2023-03-19T06:10:59.362Z,22.02
2023-03-19T06:13:28.973Z,25.45
2023-03-19T06:15:55.752Z,22.92
2023-03-19T06:18:24.645Z,24.70
2023-03-19T06:20:51.344Z,24.23
2023-03-19T06:23:18.529Z,22.75
2023-03-19T06:25:45.253Z,26.17
2023-03-19T06:28:14.362Z,24.50
2023-03-19T06:30:41.071Z,23.23
2023-03-19T06:33:07.757Z,23.67
2023-03-19T06:35:34.673Z,23.35
2023-03-19T06:38:01.405Z,23.00
2023-03-19T06:40:28.167Z,21.52
2023-03-19T06:42:54.843Z,21.38
2023-03-19T06:45:21.565Z,22.17
2023-03-19T06:47:48.261Z,21.88
2023-03-19T06:50:15.840Z,22.38
2023-03-19T06:52:42.947Z,20.83
2023-03-19T06:55:10.284Z,20.20
2023-03-19T06:57:37.270Z,21.85
2023-03-19T07:00:05.815Z,19.92
2023-03-19T07:02:32.968Z,19.80
2023-03-19T07:04:59.652Z,20.48
2023-03-19T07:07:26.688Z,19.63
2023-03-19T07:09:53.657Z,21.13
2023-03-19T07:12:20.419Z,22.15
2023-03-19T07:14:47.074Z,20.73
2023-03-19T07:17:13.845Z,22.00
2023-03-19T07:19:40.478Z,21.80
2023-03-19T07:22:07.368Z,21.45
2023-03-19T07:24:34.077Z,21.83
2023-03-19T07:27:00.843Z,21.90
2023-03-19T07:29:27.497Z,22.58
2023-03-19T07:31:54.303Z,21.80
2023-03-19T07:34:21.046Z,21.75
2023-03-19T07:36:47.718Z,21.88
2023-03-19T07:39:14.542Z,24.23
2023-03-19T07:41:41.308Z,23.98
2023-03-19T07:44:07.985Z,25.55
2023-03-19T07:46:35.008Z,21.40
2023-03-19T07:49:01.949Z,21.10
2023-03-19T07:51:28.883Z,21.83
2023-03-19T07:53:55.718Z,21.77
2023-03-19T07:56:22.457Z,22.92
2023-03-19T07:58:49.145Z,22.77
2023-03-19T08:01:15.896Z,21.00
2023-03-19T08:03:42.581Z,23.52
2023-03-19T08:06:09.488Z,20.90
2023-03-19T08:08:36.682Z,21.40
2023-03-19T08:11:04.311Z,20.90
2023-03-19T08:13:31.383Z,19.88
2023-03-19T08:15:58.067Z,20.42
2023-03-19T08:18:24.952Z,19.38
2023-03-19T08:20:51.905Z,18.92
2023-03-19T08:23:19.215Z,21.05
2023-03-19T08:25:46.058Z,19.30
2023-03-19T08:28:12.865Z,18.05
2023-03-19T08:30:42.089Z,20.20
2023-03-19T08:33:09.757Z,19.05
2023-03-19T08:35:36.917Z,18.38
2023-03-19T08:38:04.026Z,18.48
2023-03-19T08:40:30.846Z,17.75
2023-03-19T08:42:58.961Z,17.55
2023-03-19T08:45:25.863Z,16.98
2023-03-19T08:47:52.702Z,17.98
2023-03-19T08:50:19.566Z,18.90
2023-03-19T08:52:46.376Z,20.23
2023-03-19T08:55:14.710Z,20.75
2023-03-19T08:57:42.194Z,20.05
2023-03-19T09:00:09.811Z,23.67
2023-03-19T09:02:36.702Z,22.77
2023-03-19T09:05:03.762Z,23.15
2023-03-19T09:07:30.558Z,24.08
2023-03-19T09:09:57.322Z,29.60
2023-03-19T09:12:24.130Z,27.08
2023-03-19T09:14:50.971Z,27.45
2023-03-19T09:17:18.035Z,27.17
2023-03-19T09:19:44.798Z,26.77
2023-03-19T09:22:12.664Z,24.75
2023-03-19T09:24:40.753Z,25.05
2023-03-19T09:27:08.183Z,24.23
2023-03-19T09:29:34.916Z,23.52
2023-03-19T09:32:01.721Z,24.95
2023-03-19T09:34:28.465Z,23.85
2023-03-19T09:36:55.243Z,24.05
2023-03-19T09:39:22.117Z,23.35
2023-03-19T09:41:58.382Z,25.70
2023-03-19T09:44:35.180Z,23.27
2023-03-19T09:47:31.541Z,21.55
2023-03-19T09:50:23.281Z,23.35
2023-03-19T09:53:03.461Z,22.58
2023-03-19T09:55:51.459Z,23.20
2023-03-19T09:58:22.496Z,19.77
2023-03-19T10:00:50.948Z,20.42
2023-03-19T10:03:39.406Z,19.17
2023-03-19T10:06:31.756Z,20.73
2023-03-19T10:09:16.474Z,20.17
2023-03-19T10:12:15.464Z,19.60
2023-03-19T10:14:58.641Z,18.85
2023-03-19T10:17:33.338Z,20.08
2023-03-19T10:22:38.442Z,18.38
2023-03-19T10:25:10.581Z,19.58
2023-03-19T10:27:38.157Z,19.63
2023-03-19T10:30:15.628Z,20.75
2023-03-19T10:32:53.106Z,18.77
2023-03-19T10:35:23.092Z,18.10
2023-03-19T10:37:51.285Z,17.90
2023-03-19T10:40:27.418Z,17.60
2023-03-19T10:43:20.930Z,17.95
2023-03-19T10:45:48.142Z,17.92
2023-03-19T10:48:18.855Z,16.83
2023-03-19T10:51:02.182Z,16.17
2023-03-19T10:53:35.488Z,16.10
2023-03-19T10:56:05.208Z,15.50
2023-03-19T10:58:36.764Z,16.15
2023-03-19T11:01:11.068Z,14.93
2023-03-19T11:03:38.957Z,15.40
2023-03-19T11:06:18.346Z,13.77
2023-03-19T11:08:59.416Z,13.18
2023-03-19T11:11:50.960Z,13.00
2023-03-19T11:14:19.558Z,13.35
2023-03-19T11:16:57.987Z,13.77
2023-03-19T11:19:27.613Z,13.38
2023-03-19T11:22:21.621Z,13.75
2023-03-19T11:24:50.645Z,13.48
2023-03-19T11:27:19.985Z,13.50
2023-03-19T11:29:46.892Z,12.93
2023-03-19T11:32:22.260Z,13.38
2023-03-19T11:34:59.080Z,11.90
2023-03-19T11:37:41.998Z,12.65
2023-03-19T11:40:38.236Z,12.55
2023-03-19T11:43:35.918Z,12.27
2023-03-19T11:46:36.882Z,11.90
2023-03-19T11:49:21.241Z,11.18
2023-03-19T11:52:08.632Z,11.45
2023-03-19T11:55:04.470Z,11.27
2023-03-19T11:58:09.424Z,11.00
2023-03-19T12:00:51.528Z,11.02
2023-03-19T12:03:21.694Z,11.88
2023-03-19T12:05:59.974Z,10.90
2023-03-19T12:08:35.317Z,11.20
2023-03-19T12:11:35.375Z,11.20
2023-03-19T12:14:29.923Z,11.70
2023-03-19T12:17:18.322Z,11.65
2023-03-19T12:19:54.438Z,10.98
2023-03-19T12:22:46.482Z,11.02
2023-03-19T12:25:35.261Z,10.55
2023-03-19T12:28:14.620Z,10.40
2023-03-19T12:30:49.687Z,11.45
2023-03-19T12:33:36.296Z,11.60
2023-03-19T12:36:09.346Z,12.10
2023-03-19T12:38:51.598Z,11.25
2023-03-19T12:41:25.619Z,12.10
2023-03-19T12:44:01.443Z,37.33
2023-03-19T12:46:31.493Z,11.18
2023-03-19T12:49:15.233Z,11.00
2023-03-19T12:51:46.547Z,11.35
2023-03-19T12:54:18.850Z,11.07
2023-03-19T12:57:07.129Z,11.13
2023-03-19T13:00:01.276Z,11.20
2023-03-19T13:02:44.063Z,10.30
2023-03-19T13:05:19.787Z,10.40
2023-03-19T13:10:31.115Z,10.18
2023-03-19T13:13:00.162Z,10.13
2023-03-19T13:15:33.615Z,11.18
2023-03-19T13:18:04.555Z,11.00
2023-03-19T13:21:19.133Z,11.70
2023-03-19T13:23:49.610Z,15.40
2023-03-19T13:26:17.521Z,12.07
2023-03-19T13:29:19.659Z,11.73
2023-03-19T13:31:46.947Z,11.90
2023-03-19T13:34:29.567Z,12.02
2023-03-19T13:37:00.998Z,12.25
2023-03-19T13:39:31.366Z,12.07
2023-03-19T13:42:07.352Z,11.02
2023-03-19T13:44:39.014Z,10.65
2023-03-19T13:47:27.797Z,9.80
2023-03-19T13:50:25.059Z,11.43
2023-03-19T13:52:55.962Z,9.70
2023-03-19T13:55:25.699Z,8.98
2023-03-19T13:58:06.324Z,9.27
2023-03-19T14:00:42.090Z,8.20
2023-03-19T14:03:24.718Z,8.70
2023-03-19T14:05:54.690Z,9.18
2023-03-19T14:08:24.947Z,8.93
2023-03-19T14:11:00.199Z,9.63
2023-03-19T14:13:48.165Z,9.43
2023-03-19T14:16:29.519Z,9.27
2023-03-19T14:19:11.553Z,8.63
2023-03-19T14:22:06.880Z,8.77
2023-03-19T14:24:59.210Z,8.90
2023-03-19T14:27:30.318Z,8.30
2023-03-19T14:30:01.927Z,7.95
2023-03-19T14:32:36.517Z,7.55
2023-03-19T14:35:06.181Z,8.80
2023-03-19T14:37:42.434Z,7.75
2023-03-19T14:40:09.375Z,8.43
2023-03-19T14:43:13.154Z,7.78
2023-03-19T14:46:02.281Z,7.00
2023-03-19T14:48:54.036Z,6.55
2023-03-19T14:51:50.600Z,6.68
2023-03-19T14:56:50.641Z,6.80
2023-03-19T14:59:17.711Z,7.25
2023-03-19T15:01:51.715Z,7.47
2023-03-19T15:04:21.771Z,7.10
2023-03-19T15:06:56.000Z,6.90
2023-03-19T15:09:31.575Z,7.25
2023-03-19T15:12:19.474Z,7.88
2023-03-19T15:15:30.945Z,8.05
2023-03-19T15:18:04.762Z,7.60
2023-03-19T15:20:46.011Z,7.78
2023-03-19T15:23:26.703Z,8.18
2023-03-19T15:26:02.849Z,7.95
2023-03-19T15:28:32.301Z,7.43
2023-03-19T15:31:14.449Z,8.15
2023-03-19T15:33:50.021Z,8.70
2023-03-19T15:36:28.131Z,8.35
2023-03-19T15:39:00.719Z,9.35
2023-03-19T15:41:30.597Z,9.15
2023-03-19T15:43:58.456Z,8.65
2023-03-19T15:46:30.813Z,9.07
2023-03-19T15:49:15.197Z,9.18
2023-03-19T15:51:44.390Z,9.00
2023-03-19T15:54:11.875Z,9.05
2023-03-19T15:56:39.298Z,8.90
2023-03-19T15:59:06.133Z,8.55
2023-03-19T16:01:33.858Z,8.80
2023-03-19T16:04:05.881Z,7.82
2023-03-19T16:06:37.778Z,8.27
2023-03-19T16:09:22.606Z,8.75
2023-03-19T16:11:50.362Z,8.05
2023-03-19T16:14:42.440Z,9.27
2023-03-19T16:17:17.712Z,9.43
2023-03-19T16:19:50.506Z,8.40
2023-03-19T16:22:32.254Z,10.05
2023-03-19T16:24:59.476Z,10.02
2023-03-19T16:27:37.240Z,9.38
2023-03-19T16:30:12.355Z,9.63
2023-03-19T16:32:39.337Z,9.95
2023-03-19T16:35:14.789Z,10.45
2023-03-19T16:37:47.247Z,12.25
2023-03-19T16:40:14.055Z,16.80
2023-03-19T16:42:41.683Z,11.50
2023-03-19T16:45:14.663Z,11.60
2023-03-19T16:47:42.379Z,10.65
2023-03-19T16:50:10.232Z,11.77
2023-03-19T16:52:39.374Z,11.73
2023-03-19T16:55:44.616Z,12.15
2023-03-19T16:58:20.133Z,11.88
2023-03-19T17:00:47.321Z,12.63
2023-03-19T17:03:17.020Z,13.05
2023-03-19T17:05:45.185Z,14.13
2023-03-19T17:08:12.450Z,13.63
2023-03-19T17:10:50.851Z,15.05
2023-03-19T17:13:29.652Z,14.85
2023-03-19T17:15:59.851Z,13.95
2023-03-19T17:18:30.083Z,13.73
2023-03-19T17:21:13.512Z,13.98
2023-03-19T17:23:40.874Z,15.25
2023-03-19T17:26:17.674Z,13.90
2023-03-19T17:28:45.374Z,15.52
2023-03-19T17:31:41.276Z,16.60
2023-03-19T17:34:12.395Z,16.58
2023-03-19T17:36:40.028Z,15.32
2023-03-19T17:39:07.497Z,15.82
2023-03-19T17:41:34.320Z,16.15
2023-03-19T17:44:01.287Z,17.52
2023-03-19T17:46:28.732Z,18.50
2023-03-19T17:48:55.840Z,18.30
2023-03-19T17:51:45.332Z,17.90
2023-03-19T17:54:13.435Z,18.50
2023-03-19T17:56:40.967Z,18.92
2023-03-19T17:59:08.340Z,19.70
2023-03-19T18:01:35.867Z,23.90
2023-03-19T18:04:04.578Z,21.90
2023-03-19T18:06:35.351Z,21.20
2023-03-19T18:09:02.710Z,23.85
2023-03-19T18:11:29.385Z,22.13
2023-03-19T18:13:56.141Z,23.77
2023-03-19T18:16:28.635Z,22.23
2023-03-19T18:18:59.031Z,23.42
2023-03-19T18:21:27.660Z,20.80
2023-03-19T18:23:55.260Z,21.38
2023-03-19T18:26:22.380Z,22.95
2023-03-19T18:28:49.086Z,23.23
2023-03-19T18:31:24.091Z,20.85
2023-03-19T18:34:03.470Z,21.70
2023-03-19T18:36:32.025Z,24.30
2023-03-19T18:38:59.094Z,24.92
2023-03-19T18:41:27.774Z,22.58
2023-03-19T18:43:54.949Z,22.83
2023-03-19T18:46:27.774Z,22.30
2023-03-19T18:49:14.056Z,21.17
2023-03-19T18:54:28.110Z,21.58
2023-03-19T18:56:55.336Z,22.08
2023-03-19T18:59:30.521Z,22.58
2023-03-19T19:02:13.113Z,22.65
2023-03-19T19:04:40.437Z,20.90
2023-03-19T19:07:12.230Z,21.05
2023-03-19T19:09:38.909Z,17.95
2023-03-19T19:12:06.089Z,17.98
2023-03-19T19:14:33.717Z,19.02
2023-03-19T19:17:00.526Z,18.13
2023-03-19T19:19:29.189Z,18.33
2023-03-19T19:21:55.992Z,17.92
2023-03-19T19:24:22.782Z,15.82
2023-03-19T19:26:51.439Z,16.95
2023-03-19T19:29:26.646Z,16.88
2023-03-19T19:31:54.100Z,17.17
2023-03-19T19:34:21.078Z,16.08
2023-03-19T19:36:47.813Z,16.15
2023-03-19T19:39:14.683Z,15.32
2023-03-19T19:41:41.474Z,15.23
2023-03-19T19:44:16.452Z,15.02
2023-03-19T19:46:45.576Z,16.73
2023-03-19T19:49:14.515Z,15.82
2023-03-19T19:51:41.280Z,14.75
2023-03-19T19:54:08.169Z,13.05
2023-03-19T19:56:34.916Z,11.50
2023-03-19T19:59:04.106Z,11.90
2023-03-19T20:01:30.908Z,11.80
2023-03-19T20:03:57.656Z,12.30
2023-03-19T20:06:24.740Z,11.70
2023-03-19T20:08:51.422Z,11.05
2023-03-19T20:11:23.612Z,9.65
2023-03-19T20:13:52.892Z,11.57
2023-03-19T20:16:20.962Z,11.23
2023-03-19T20:18:47.904Z,10.65
2023-03-19T20:21:15.412Z,10.77
2023-03-19T20:23:43.670Z,11.68
2023-03-19T20:26:14.786Z,12.75
2023-03-19T20:28:43.563Z,13.50
2023-03-19T20:31:34.782Z,13.45
2023-03-19T20:34:04.118Z,15.60
2023-03-19T20:36:31.350Z,12.82
2023-03-19T20:38:58.123Z,10.98
2023-03-19T20:41:26.264Z,13.32
2023-03-19T20:43:54.027Z,13.50
2023-03-19T20:46:22.222Z,13.13
2023-03-19T20:48:49.645Z,12.30
2023-03-19T20:51:22.195Z,13.75
2023-03-19T20:53:48.944Z,11.48
2023-03-19T20:56:17.699Z,12.15
2023-03-19T20:58:45.104Z,10.60
2023-03-19T21:01:12.302Z,10.00
2023-03-19T21:03:39.141Z,10.45
2023-03-19T21:06:14.992Z,11.20
2023-03-19T21:08:44.579Z,10.23
2023-03-19T21:11:23.244Z,11.00
2023-03-19T21:13:52.795Z,9.10
2023-03-19T21:16:25.805Z,10.70
2023-03-19T21:18:53.076Z,10.40
2023-03-19T21:21:34.241Z,10.25
2023-03-19T21:24:07.812Z,10.60
2023-03-19T21:26:37.654Z,10.48
2023-03-19T21:29:08.620Z,10.98
2023-03-19T21:31:35.316Z,9.85
2023-03-19T21:34:02.065Z,8.77
2023-03-19T21:36:28.798Z,8.25
2023-03-19T21:38:55.590Z,8.85
2023-03-19T21:41:25.942Z,8.30
2023-03-19T21:43:59.438Z,8.70
2023-03-19T21:46:29.413Z,7.55
2023-03-19T21:48:58.438Z,7.63
2023-03-19T21:51:27.086Z,8.27
2023-03-19T21:53:54.236Z,8.55
2023-03-19T21:56:26.353Z,7.55
2023-03-19T21:58:53.519Z,7.97
2023-03-19T22:01:23.457Z,7.88
2023-03-19T22:03:51.779Z,7.60
2023-03-19T22:06:18.531Z,7.28
2023-03-19T22:08:45.445Z,7.15
2023-03-19T22:11:25.984Z,6.43
2023-03-19T22:13:53.335Z,7.07
2023-03-19T22:16:25.394Z,6.40
2023-03-19T22:18:53.083Z,7.15
2023-03-19T22:21:22.746Z,6.88
2023-03-19T22:23:50.357Z,7.22
2023-03-19T22:26:29.794Z,7.13
2023-03-19T22:28:59.129Z,6.65
2023-03-19T22:31:26.264Z,6.93
2023-03-19T22:33:53.304Z,7.55
2023-03-19T22:36:20.139Z,6.68
2023-03-19T22:38:46.983Z,8.13
2023-03-19T22:41:18.425Z,8.23
2023-03-19T22:43:45.822Z,6.65
2023-03-19T22:46:16.088Z,7.88
2023-03-19T22:48:46.273Z,6.95
2023-03-19T22:51:16.976Z,8.23
2023-03-19T22:53:44.033Z,7.93
2023-03-19T22:56:11.860Z,7.95
2023-03-19T22:58:38.600Z,8.43
2023-03-19T23:01:20.776Z,8.50
2023-03-19T23:03:49.426Z,8.23
2023-03-19T23:06:29.609Z,9.05
2023-03-19T23:08:57.397Z,8.35
2023-03-19T23:11:24.130Z,7.18
2023-03-19T23:13:51.004Z,7.13
2023-03-19T23:16:21.982Z,7.57
2023-03-19T23:18:49.452Z,8.30
2023-03-19T23:21:18.027Z,7.82
2023-03-19T23:23:45.337Z,6.20
2023-03-19T23:26:31.138Z,6.60
2023-03-19T23:29:04.117Z,6.32
2023-03-19T23:31:30.928Z,5.60
2023-03-19T23:33:57.617Z,6.00
2023-03-19T23:36:24.335Z,5.43
2023-03-19T23:38:51.698Z,5.32
2023-03-19T23:41:24.977Z,5.30
2023-03-19T23:43:52.807Z,4.40
2023-03-19T23:46:20.746Z,4.75
2023-03-19T23:48:47.558Z,4.78
2023-03-19T23:51:15.561Z,4.07
2023-03-19T23:53:42.852Z,4.43
2023-03-19T23:56:20.845Z,4.40
2023-03-19T23:58:50.256Z,4.43
